sensor_id;sensor_type;location;lat;lon;timestamp;P1;P2;P0
81640;PMS5003;74020;50.722;-1.944;2023-11-22T00:00:15;7;7;
81640;PMS5003;74020;50.722;-1.944;2023-11-22T00:02:40;7;7;
81640;PMS5003;74020;50.722;-1.944;2023-11-22T00:05:06;7;7;
81640;PMS5003;74020;50.722;-1.944;2023-11-22T00:07:32;9;8;
81640;PMS5003;74020;50.722;-1.944;2023-11-22T00:09:57;9;9;
81640;PMS5003;74020;50.722;-1.944;2023-11-22T00:12:22;9;9;
81640;PMS5003;74020;50.722;-1.944;2023-11-22T00:14:48;8;8;
81640;PMS5003;74020;50.722;-1.944;2023-11-22T00:17:13;8;8;
81640;PMS5003;74020;50.722;-1.944;2023-11-22T00:19:39;10;10;
81640;PMS5003;74020;50.722;-1.944;2023-11-22T00:22:04;10;10;
81640;PMS5003;74020;50.722;-1.944;2023-11-22T00:24:30;9;9;
81640;PMS5003;74020;50.722;-1.944;2023-11-22T00:26:55;12;12;
81640;PMS5003;74020;50.722;-1.944;2023-11-22T00:29:21;10;10;
81640;PMS5003;74020;50.722;-1.944;2023-11-22T00:31:46;8;8;
81640;PMS5003;74020;50.722;-1.944;2023-11-22T00:34:12;10;10;
81640;PMS5003;74020;50.722;-1.944;2023-11-22T00:36:37;13;12;
81640;PMS5003;74020;50.722;-1.944;2023-11-22T00:39:02;9;8;
81640;PMS5003;74020;50.722;-1.944;2023-11-22T00:41:30;10;9;
81640;PMS5003;74020;50.722;-1.944;2023-11-22T00:43:53;12;10;
81640;PMS5003;74020;50.722;-1.944;2023-11-22T00:46:19;10;9;
81640;PMS5003;74020;50.722;-1.944;2023-11-22T00:48:44;13;13;
81640;PMS5003;74020;50.722;-1.944;2023-11-22T00:51:10;12;12;
81640;PMS5003;74020;50.722;-1.944;2023-11-22T00:53:35;10;10;
81640;PMS5003;74020;50.722;-1.944;2023-11-22T00:56:01;10;10;
81640;PMS5003;74020;50.722;-1.944;2023-11-22T00:58:26;15;12;
81640;PMS5003;74020;50.722;-1.944;2023-11-22T01:00:52;12;10;
81640;PMS5003;74020;50.722;-1.944;2023-11-22T01:03:17;12;10;
81640;PMS5003;74020;50.722;-1.944;2023-11-22T01:05:42;12;12;
81640;PMS5003;74020;50.722;-1.944;2023-11-22T01:08:08;10;10;
81640;PMS5003;74020;50.722;-1.944;2023-11-22T01:10:33;15;13;
81640;PMS5003;74020;50.722;-1.944;2023-11-22T01:12:59;14;13;
81640;PMS5003;74020;50.722;-1.944;2023-11-22T01:15:24;13;12;
81640;PMS5003;74020;50.722;-1.944;2023-11-22T01:17:50;14;12;
81640;PMS5003;74020;50.722;-1.944;2023-11-22T01:20:15;12;12;
81640;PMS5003;74020;50.722;-1.944;2023-11-22T01:22:41;12;12;
81640;PMS5003;74020;50.722;-1.944;2023-11-22T01:25:06;14;14;
81640;PMS5003;74020;50.722;-1.944;2023-11-22T01:27:32;20;16;
81640;PMS5003;74020;50.722;-1.944;2023-11-22T01:29:57;10;10;
81640;PMS5003;74020;50.722;-1.944;2023-11-22T01:32:22;13;12;
81640;PMS5003;74020;50.722;-1.944;2023-11-22T01:34:48;13;13;
81640;PMS5003;74020;50.722;-1.944;2023-11-22T01:37:13;12;12;
81640;PMS5003;74020;50.722;-1.944;2023-11-22T01:39:39;13;13;
81640;PMS5003;74020;50.722;-1.944;2023-11-22T01:42:05;17;15;
81640;PMS5003;74020;50.722;-1.944;2023-11-22T01:44:30;12;12;
81640;PMS5003;74020;50.722;-1.944;2023-11-22T01:46:56;13;13;
81640;PMS5003;74020;50.722;-1.944;2023-11-22T01:49:22;13;13;
81640;PMS5003;74020;50.722;-1.944;2023-11-22T01:51:47;13;12;
81640;PMS5003;74020;50.722;-1.944;2023-11-22T01:54:13;12;12;
81640;PMS5003;74020;50.722;-1.944;2023-11-22T01:56:38;10;10;
81640;PMS5003;74020;50.722;-1.944;2023-11-22T01:59:04;10;10;
81640;PMS5003;74020;50.722;-1.944;2023-11-22T02:01:29;10;10;
81640;PMS5003;74020;50.722;-1.944;2023-11-22T02:03:54;14;13;
81640;PMS5003;74020;50.722;-1.944;2023-11-22T02:06:20;13;13;
81640;PMS5003;74020;50.722;-1.944;2023-11-22T02:08:45;10;10;
81640;PMS5003;74020;50.722;-1.944;2023-11-22T02:11:11;15;15;
81640;PMS5003;74020;50.722;-1.944;2023-11-22T02:13:37;13;12;
81640;PMS5003;74020;50.722;-1.944;2023-11-22T02:16:03;12;12;
81640;PMS5003;74020;50.722;-1.944;2023-11-22T02:18:28;12;12;
81640;PMS5003;74020;50.722;-1.944;2023-11-22T02:20:54;14;14;
81640;PMS5003;74020;50.722;-1.944;2023-11-22T02:23:20;13;13;
81640;PMS5003;74020;50.722;-1.944;2023-11-22T02:25:45;15;15;
81640;PMS5003;74020;50.722;-1.944;2023-11-22T02:28:11;12;12;
81640;PMS5003;74020;50.722;-1.944;2023-11-22T02:30:37;12;12;
81640;PMS5003;74020;50.722;-1.944;2023-11-22T02:33:02;12;12;
81640;PMS5003;74020;50.722;-1.944;2023-11-22T02:35:27;12;12;
81640;PMS5003;74020;50.722;-1.944;2023-11-22T02:37:53;12;12;
81640;PMS5003;74020;50.722;-1.944;2023-11-22T02:40:19;14;14;
81640;PMS5003;74020;50.722;-1.944;2023-11-22T02:42:44;12;12;
81640;PMS5003;74020;50.722;-1.944;2023-11-22T02:45:10;14;14;
81640;PMS5003;74020;50.722;-1.944;2023-11-22T02:47:35;14;14;
81640;PMS5003;74020;50.722;-1.944;2023-11-22T02:50:01;13;13;
81640;PMS5003;74020;50.722;-1.944;2023-11-22T02:52:26;14;14;
81640;PMS5003;74020;50.722;-1.944;2023-11-22T02:54:52;17;17;
81640;PMS5003;74020;50.722;-1.944;2023-11-22T02:57:17;10;10;
81640;PMS5003;74020;50.722;-1.944;2023-11-22T02:59:43;13;13;
81640;PMS5003;74020;50.722;-1.944;2023-11-22T03:02:08;14;12;
81640;PMS5003;74020;50.722;-1.944;2023-11-22T03:04:34;9;9;
81640;PMS5003;74020;50.722;-1.944;2023-11-22T03:06:59;16;15;
81640;PMS5003;74020;50.722;-1.944;2023-11-22T03:09:25;12;10;
81640;PMS5003;74020;50.722;-1.944;2023-11-22T03:11:50;10;10;
81640;PMS5003;74020;50.722;-1.944;2023-11-22T03:14:16;14;13;
81640;PMS5003;74020;50.722;-1.944;2023-11-22T03:16:42;12;12;
81640;PMS5003;74020;50.722;-1.944;2023-11-22T03:19:07;10;10;
81640;PMS5003;74020;50.722;-1.944;2023-11-22T03:21:33;10;10;
81640;PMS5003;74020;50.722;-1.944;2023-11-22T03:23:58;10;10;
81640;PMS5003;74020;50.722;-1.944;2023-11-22T03:26:24;13;10;
81640;PMS5003;74020;50.722;-1.944;2023-11-22T03:28:49;10;9;
81640;PMS5003;74020;50.722;-1.944;2023-11-22T03:31:15;13;13;
81640;PMS5003;74020;50.722;-1.944;2023-11-22T03:33:40;12;12;
81640;PMS5003;74020;50.722;-1.944;2023-11-22T03:36:05;13;13;
81640;PMS5003;74020;50.722;-1.944;2023-11-22T03:38:30;10;10;
81640;PMS5003;74020;50.722;-1.944;2023-11-22T03:40:56;9;9;
81640;PMS5003;74020;50.722;-1.944;2023-11-22T03:43:21;13;12;
81640;PMS5003;74020;50.722;-1.944;2023-11-22T03:45:47;12;12;
81640;PMS5003;74020;50.722;-1.944;2023-11-22T03:48:12;13;13;
81640;PMS5003;74020;50.722;-1.944;2023-11-22T03:50:37;12;12;
81640;PMS5003;74020;50.722;-1.944;2023-11-22T03:53:03;14;14;
81640;PMS5003;74020;50.722;-1.944;2023-11-22T03:55:28;12;12;
81640;PMS5003;74020;50.722;-1.944;2023-11-22T03:57:54;11;11;
81640;PMS5003;74020;50.722;-1.944;2023-11-22T04:00:19;10;10;
81640;PMS5003;74020;50.722;-1.944;2023-11-22T04:02:45;11;11;
81640;PMS5003;74020;50.722;-1.944;2023-11-22T04:05:10;12;12;
81640;PMS5003;74020;50.722;-1.944;2023-11-22T04:07:35;11;11;
81640;PMS5003;74020;50.722;-1.944;2023-11-22T04:10:01;11;11;
81640;PMS5003;74020;50.722;-1.944;2023-11-22T04:12:26;9;9;
81640;PMS5003;74020;50.722;-1.944;2023-11-22T04:14:52;10;10;
81640;PMS5003;74020;50.722;-1.944;2023-11-22T04:17:17;14;14;
81640;PMS5003;74020;50.722;-1.944;2023-11-22T04:19:42;10;9;
81640;PMS5003;74020;50.722;-1.944;2023-11-22T04:22:08;13;11;
81640;PMS5003;74020;50.722;-1.944;2023-11-22T04:24:33;10;10;
81640;PMS5003;74020;50.722;-1.944;2023-11-22T04:26:59;11;10;
81640;PMS5003;74020;50.722;-1.944;2023-11-22T04:29:24;10;10;
81640;PMS5003;74020;50.722;-1.944;2023-11-22T04:31:50;10;10;
81640;PMS5003;74020;50.722;-1.944;2023-11-22T04:34:15;11;11;
81640;PMS5003;74020;50.722;-1.944;2023-11-22T04:36:41;13;13;
81640;PMS5003;74020;50.722;-1.944;2023-11-22T04:39:06;14;10;
81640;PMS5003;74020;50.722;-1.944;2023-11-22T04:41:32;13;13;
81640;PMS5003;74020;50.722;-1.944;2023-11-22T04:43:57;15;15;
81640;PMS5003;74020;50.722;-1.944;2023-11-22T04:46:23;14;14;
81640;PMS5003;74020;50.722;-1.944;2023-11-22T04:48:49;14;14;
81640;PMS5003;74020;50.722;-1.944;2023-11-22T04:51:14;13;11;
81640;PMS5003;74020;50.722;-1.944;2023-11-22T04:53:39;14;14;
81640;PMS5003;74020;50.722;-1.944;2023-11-22T04:56:05;11;11;
81640;PMS5003;74020;50.722;-1.944;2023-11-22T04:58:30;13;11;
81640;PMS5003;74020;50.722;-1.944;2023-11-22T05:00:56;13;13;
81640;PMS5003;74020;50.722;-1.944;2023-11-22T05:03:21;14;13;
81640;PMS5003;74020;50.722;-1.944;2023-11-22T05:05:47;14;14;
81640;PMS5003;74020;50.722;-1.944;2023-11-22T05:08:12;14;14;
81640;PMS5003;74020;50.722;-1.944;2023-11-22T05:10:38;13;11;
81640;PMS5003;74020;50.722;-1.944;2023-11-22T05:13:03;17;16;
81640;PMS5003;74020;50.722;-1.944;2023-11-22T05:15:29;10;10;
81640;PMS5003;74020;50.722;-1.944;2023-11-22T05:17:54;11;11;
81640;PMS5003;74020;50.722;-1.944;2023-11-22T05:20:20;14;13;
81640;PMS5003;74020;50.722;-1.944;2023-11-22T05:22:45;13;13;
81640;PMS5003;74020;50.722;-1.944;2023-11-22T05:25:11;18;18;
81640;PMS5003;74020;50.722;-1.944;2023-11-22T05:27:36;14;14;
81640;PMS5003;74020;50.722;-1.944;2023-11-22T05:30:02;15;15;
81640;PMS5003;74020;50.722;-1.944;2023-11-22T05:32:27;16;16;
81640;PMS5003;74020;50.722;-1.944;2023-11-22T05:34:53;19;17;
81640;PMS5003;74020;50.722;-1.944;2023-11-22T05:37:20;15;14;
81640;PMS5003;74020;50.722;-1.944;2023-11-22T05:39:44;16;16;
81640;PMS5003;74020;50.722;-1.944;2023-11-22T05:42:09;19;18;
81640;PMS5003;74020;50.722;-1.944;2023-11-22T05:44:35;16;16;
81640;PMS5003;74020;50.722;-1.944;2023-11-22T05:47:01;16;16;
81640;PMS5003;74020;50.722;-1.944;2023-11-22T05:49:26;17;17;
81640;PMS5003;74020;50.722;-1.944;2023-11-22T05:51:52;15;15;
81640;PMS5003;74020;50.722;-1.944;2023-11-22T05:54:17;21;20;
81640;PMS5003;74020;50.722;-1.944;2023-11-22T05:56:42;20;20;
81640;PMS5003;74020;50.722;-1.944;2023-11-22T05:59:08;16;16;
81640;PMS5003;74020;50.722;-1.944;2023-11-22T06:01:33;22;21;
81640;PMS5003;74020;50.722;-1.944;2023-11-22T06:03:59;17;15;
81640;PMS5003;74020;50.722;-1.944;2023-11-22T06:06:24;14;13;
81640;PMS5003;74020;50.722;-1.944;2023-11-22T06:08:50;17;17;
81640;PMS5003;74020;50.722;-1.944;2023-11-22T06:11:15;19;18;
81640;PMS5003;74020;50.722;-1.944;2023-11-22T06:13:41;21;20;
81640;PMS5003;74020;50.722;-1.944;2023-11-22T06:16:06;17;15;
81640;PMS5003;74020;50.722;-1.944;2023-11-22T06:18:32;19;18;
81640;PMS5003;74020;50.722;-1.944;2023-11-22T06:20:58;19;19;
81640;PMS5003;74020;50.722;-1.944;2023-11-22T06:23:23;19;17;
81640;PMS5003;74020;50.722;-1.944;2023-11-22T06:25:49;15;15;
81640;PMS5003;74020;50.722;-1.944;2023-11-22T06:28:14;17;17;
81640;PMS5003;74020;50.722;-1.944;2023-11-22T06:30:40;16;15;
81640;PMS5003;74020;50.722;-1.944;2023-11-22T06:33:05;18;15;
81640;PMS5003;74020;50.722;-1.944;2023-11-22T06:35:30;13;13;
81640;PMS5003;74020;50.722;-1.944;2023-11-22T06:37:56;16;16;
81640;PMS5003;74020;50.722;-1.944;2023-11-22T06:40:21;15;15;
81640;PMS5003;74020;50.722;-1.944;2023-11-22T06:42:46;14;14;
81640;PMS5003;74020;50.722;-1.944;2023-11-22T06:45:12;16;15;
81640;PMS5003;74020;50.722;-1.944;2023-11-22T06:47:38;13;13;
81640;PMS5003;74020;50.722;-1.944;2023-11-22T06:50:04;14;14;
81640;PMS5003;74020;50.722;-1.944;2023-11-22T06:52:29;22;22;
81640;PMS5003;74020;50.722;-1.944;2023-11-22T06:54:54;21;19;
81640;PMS5003;74020;50.722;-1.944;2023-11-22T06:57:20;14;14;
81640;PMS5003;74020;50.722;-1.944;2023-11-22T06:59:45;15;15;
81640;PMS5003;74020;50.722;-1.944;2023-11-22T07:02:11;16;14;
81640;PMS5003;74020;50.722;-1.944;2023-11-22T07:04:36;18;16;
81640;PMS5003;74020;50.722;-1.944;2023-11-22T07:07:02;20;18;
81640;PMS5003;74020;50.722;-1.944;2023-11-22T07:09:28;19;18;
81640;PMS5003;74020;50.722;-1.944;2023-11-22T07:11:53;20;20;
81640;PMS5003;74020;50.722;-1.944;2023-11-22T07:14:19;18;16;
81640;PMS5003;74020;50.722;-1.944;2023-11-22T07:16:44;19;18;
81640;PMS5003;74020;50.722;-1.944;2023-11-22T07:19:10;21;19;
81640;PMS5003;74020;50.722;-1.944;2023-11-22T07:21:35;21;20;
81640;PMS5003;74020;50.722;-1.944;2023-11-22T07:24:00;18;18;
81640;PMS5003;74020;50.722;-1.944;2023-11-22T07:26:25;21;21;
81640;PMS5003;74020;50.722;-1.944;2023-11-22T07:28:51;18;18;
81640;PMS5003;74020;50.722;-1.944;2023-11-22T07:31:16;16;16;
81640;PMS5003;74020;50.722;-1.944;2023-11-22T07:33:41;18;18;
81640;PMS5003;74020;50.722;-1.944;2023-11-22T07:36:07;21;21;
81640;PMS5003;74020;50.722;-1.944;2023-11-22T07:38:32;24;22;
81640;PMS5003;74020;50.722;-1.944;2023-11-22T07:40:57;21;21;
81640;PMS5003;74020;50.722;-1.944;2023-11-22T07:43:22;16;15;
81640;PMS5003;74020;50.722;-1.944;2023-11-22T07:45:48;21;21;
81640;PMS5003;74020;50.722;-1.944;2023-11-22T07:48:13;16;16;
81640;PMS5003;74020;50.722;-1.944;2023-11-22T07:50:39;25;22;
81640;PMS5003;74020;50.722;-1.944;2023-11-22T07:53:05;21;21;
81640;PMS5003;74020;50.722;-1.944;2023-11-22T07:55:30;21;21;
81640;PMS5003;74020;50.722;-1.944;2023-11-22T07:57:55;19;18;
81640;PMS5003;74020;50.722;-1.944;2023-11-22T08:00:21;21;20;
81640;PMS5003;74020;50.722;-1.944;2023-11-22T08:02:47;22;21;
81640;PMS5003;74020;50.722;-1.944;2023-11-22T08:05:14;20;20;
81640;PMS5003;74020;50.722;-1.944;2023-11-22T08:07:38;25;24;
81640;PMS5003;74020;50.722;-1.944;2023-11-22T08:10:05;20;19;
81640;PMS5003;74020;50.722;-1.944;2023-11-22T08:12:29;20;20;
81640;PMS5003;74020;50.722;-1.944;2023-11-22T08:14:56;22;22;
81640;PMS5003;74020;50.722;-1.944;2023-11-22T08:17:20;19;19;
81640;PMS5003;74020;50.722;-1.944;2023-11-22T08:19:45;16;16;
81640;PMS5003;74020;50.722;-1.944;2023-11-22T08:22:13;24;22;
81640;PMS5003;74020;50.722;-1.944;2023-11-22T08:24:37;21;20;
81640;PMS5003;74020;50.722;-1.944;2023-11-22T08:27:02;23;23;
81640;PMS5003;74020;50.722;-1.944;2023-11-22T08:29:27;24;24;
81640;PMS5003;74020;50.722;-1.944;2023-11-22T08:31:53;16;16;
81640;PMS5003;74020;50.722;-1.944;2023-11-22T08:34:18;21;20;
81640;PMS5003;74020;50.722;-1.944;2023-11-22T08:36:43;22;21;
81640;PMS5003;74020;50.722;-1.944;2023-11-22T08:39:09;27;26;
81640;PMS5003;74020;50.722;-1.944;2023-11-22T08:41:35;23;21;
81640;PMS5003;74020;50.722;-1.944;2023-11-22T08:44:01;22;21;
81640;PMS5003;74020;50.722;-1.944;2023-11-22T08:46:26;23;23;
81640;PMS5003;74020;50.722;-1.944;2023-11-22T08:48:52;22;21;
81640;PMS5003;74020;50.722;-1.944;2023-11-22T08:51:18;24;23;
81640;PMS5003;74020;50.722;-1.944;2023-11-22T08:53:43;21;21;
81640;PMS5003;74020;50.722;-1.944;2023-11-22T08:56:09;21;20;
81640;PMS5003;74020;50.722;-1.944;2023-11-22T08:58:34;23;22;
81640;PMS5003;74020;50.722;-1.944;2023-11-22T09:01:00;18;18;
81640;PMS5003;74020;50.722;-1.944;2023-11-22T09:03:25;23;23;
81640;PMS5003;74020;50.722;-1.944;2023-11-22T09:05:51;22;21;
81640;PMS5003;74020;50.722;-1.944;2023-11-22T09:08:16;18;18;
81640;PMS5003;74020;50.722;-1.944;2023-11-22T09:10:42;19;19;
81640;PMS5003;74020;50.722;-1.944;2023-11-22T09:13:08;22;21;
81640;PMS5003;74020;50.722;-1.944;2023-11-22T09:15:33;23;23;
81640;PMS5003;74020;50.722;-1.944;2023-11-22T09:17:59;25;24;
81640;PMS5003;74020;50.722;-1.944;2023-11-22T09:20:24;17;17;
81640;PMS5003;74020;50.722;-1.944;2023-11-22T09:22:50;21;19;
81640;PMS5003;74020;50.722;-1.944;2023-11-22T09:25:15;16;16;
81640;PMS5003;74020;50.722;-1.944;2023-11-22T09:27:41;21;19;
81640;PMS5003;74020;50.722;-1.944;2023-11-22T09:30:07;23;23;
81640;PMS5003;74020;50.722;-1.944;2023-11-22T09:32:32;23;22;
81640;PMS5003;74020;50.722;-1.944;2023-11-22T09:34:57;21;19;
81640;PMS5003;74020;50.722;-1.944;2023-11-22T09:37:23;22;19;
81640;PMS5003;74020;50.722;-1.944;2023-11-22T09:39:48;21;18;
81640;PMS5003;74020;50.722;-1.944;2023-11-22T09:42:14;17;17;
81640;PMS5003;74020;50.722;-1.944;2023-11-22T09:44:39;17;17;
81640;PMS5003;74020;50.722;-1.944;2023-11-22T09:47:05;23;23;
81640;PMS5003;74020;50.722;-1.944;2023-11-22T09:49:30;16;15;
81640;PMS5003;74020;50.722;-1.944;2023-11-22T09:51:56;20;19;
81640;PMS5003;74020;50.722;-1.944;2023-11-22T09:54:21;17;17;
81640;PMS5003;74020;50.722;-1.944;2023-11-22T09:56:46;19;17;
81640;PMS5003;74020;50.722;-1.944;2023-11-22T09:59:12;27;27;
81640;PMS5003;74020;50.722;-1.944;2023-11-22T10:01:38;27;25;
81640;PMS5003;74020;50.722;-1.944;2023-11-22T10:04:03;25;24;
81640;PMS5003;74020;50.722;-1.944;2023-11-22T10:06:29;24;24;
81640;PMS5003;74020;50.722;-1.944;2023-11-22T10:08:54;18;17;
81640;PMS5003;74020;50.722;-1.944;2023-11-22T10:11:20;15;15;
81640;PMS5003;74020;50.722;-1.944;2023-11-22T10:13:47;21;20;
81640;PMS5003;74020;50.722;-1.944;2023-11-22T10:16:11;21;21;
81640;PMS5003;74020;50.722;-1.944;2023-11-22T10:18:38;19;18;
81640;PMS5003;74020;50.722;-1.944;2023-11-22T10:21:01;24;24;
81640;PMS5003;74020;50.722;-1.944;2023-11-22T10:23:26;32;32;
81640;PMS5003;74020;50.722;-1.944;2023-11-22T10:25:52;27;27;
81640;PMS5003;74020;50.722;-1.944;2023-11-22T10:28:17;29;29;
81640;PMS5003;74020;50.722;-1.944;2023-11-22T10:30:42;28;28;
81640;PMS5003;74020;50.722;-1.944;2023-11-22T10:33:09;23;23;
81640;PMS5003;74020;50.722;-1.944;2023-11-22T10:35:33;28;28;
81640;PMS5003;74020;50.722;-1.944;2023-11-22T10:37:59;23;22;
81640;PMS5003;74020;50.722;-1.944;2023-11-22T10:40:23;20;18;
81640;PMS5003;74020;50.722;-1.944;2023-11-22T10:42:49;22;19;
81640;PMS5003;74020;50.722;-1.944;2023-11-22T10:45:14;30;28;
81640;PMS5003;74020;50.722;-1.944;2023-11-22T10:47:40;22;22;
81640;PMS5003;74020;50.722;-1.944;2023-11-22T10:50:06;31;29;
81640;PMS5003;74020;50.722;-1.944;2023-11-22T10:52:31;31;28;
81640;PMS5003;74020;50.722;-1.944;2023-11-22T10:54:59;31;30;
81640;PMS5003;74020;50.722;-1.944;2023-11-22T10:57:22;35;35;
81640;PMS5003;74020;50.722;-1.944;2023-11-22T10:59:49;37;37;
81640;PMS5003;74020;50.722;-1.944;2023-11-22T11:02:14;34;33;
81640;PMS5003;74020;50.722;-1.944;2023-11-22T11:04:39;25;24;
81640;PMS5003;74020;50.722;-1.944;2023-11-22T11:07:04;23;23;
81640;PMS5003;74020;50.722;-1.944;2023-11-22T11:09:30;23;23;
81640;PMS5003;74020;50.722;-1.944;2023-11-22T11:11:56;22;20;
81640;PMS5003;74020;50.722;-1.944;2023-11-22T11:14:21;22;22;
81640;PMS5003;74020;50.722;-1.944;2023-11-22T11:16:46;20;19;
81640;PMS5003;74020;50.722;-1.944;2023-11-22T11:19:12;23;22;
81640;PMS5003;74020;50.722;-1.944;2023-11-22T11:21:37;20;20;
81640;PMS5003;74020;50.722;-1.944;2023-11-22T11:24:02;15;15;
81640;PMS5003;74020;50.722;-1.944;2023-11-22T11:26:28;14;13;
81640;PMS5003;74020;50.722;-1.944;2023-11-22T11:28:53;12;12;
81640;PMS5003;74020;50.722;-1.944;2023-11-22T11:31:20;10;10;
81640;PMS5003;74020;50.722;-1.944;2023-11-22T11:36:10;11;9;
81640;PMS5003;74020;50.722;-1.944;2023-11-22T11:38:35;12;12;
81640;PMS5003;74020;50.722;-1.944;2023-11-22T11:45:52;7;7;
81640;PMS5003;74020;50.722;-1.944;2023-11-22T11:48:17;7;7;
81640;PMS5003;74020;50.722;-1.944;2023-11-22T11:50:42;7;7;
81640;PMS5003;74020;50.722;-1.944;2023-11-22T11:53:07;7;7;
81640;PMS5003;74020;50.722;-1.944;2023-11-22T11:55:33;6;6;
81640;PMS5003;74020;50.722;-1.944;2023-11-22T11:58:02;6;6;
81640;PMS5003;74020;50.722;-1.944;2023-11-22T12:00:23;6;6;
81640;PMS5003;74020;50.722;-1.944;2023-11-22T12:02:49;6;5;
81640;PMS5003;74020;50.722;-1.944;2023-11-22T12:05:14;6;5;
81640;PMS5003;74020;50.722;-1.944;2023-11-22T12:07:39;5;5;
81640;PMS5003;74020;50.722;-1.944;2023-11-22T12:10:05;6;5;
81640;PMS5003;74020;50.722;-1.944;2023-11-22T12:12:30;5;5;
81640;PMS5003;74020;50.722;-1.944;2023-11-22T12:14:55;4;4;
81640;PMS5003;74020;50.722;-1.944;2023-11-22T12:17:26;4;4;
81640;PMS5003;74020;50.722;-1.944;2023-11-22T12:19:46;6;5;
81640;PMS5003;74020;50.722;-1.944;2023-11-22T12:22:11;5;5;
81640;PMS5003;74020;50.722;-1.944;2023-11-22T12:24:37;4;4;
81640;PMS5003;74020;50.722;-1.944;2023-11-22T12:27:02;3;3;
81640;PMS5003;74020;50.722;-1.944;2023-11-22T12:29:27;3;3;
81640;PMS5003;74020;50.722;-1.944;2023-11-22T12:31:53;4;3;
81640;PMS5003;74020;50.722;-1.944;2023-11-22T12:34:18;3;2;
81640;PMS5003;74020;50.722;-1.944;2023-11-22T12:36:45;5;4;
81640;PMS5003;74020;50.722;-1.944;2023-11-22T12:39:09;4;4;
81640;PMS5003;74020;50.722;-1.944;2023-11-22T12:41:34;4;4;
81640;PMS5003;74020;50.722;-1.944;2023-11-22T12:44:03;5;4;
81640;PMS5003;74020;50.722;-1.944;2023-11-22T12:46:25;4;4;
81640;PMS5003;74020;50.722;-1.944;2023-11-22T12:48:51;2;2;
81640;PMS5003;74020;50.722;-1.944;2023-11-22T12:51:15;3;3;
81640;PMS5003;74020;50.722;-1.944;2023-11-22T12:53:41;4;3;
81640;PMS5003;74020;50.722;-1.944;2023-11-22T12:56:06;4;4;
81640;PMS5003;74020;50.722;-1.944;2023-11-22T12:58:32;3;3;
81640;PMS5003;74020;50.722;-1.944;2023-11-22T13:00:56;4;4;
81640;PMS5003;74020;50.722;-1.944;2023-11-22T13:03:22;4;3;
81640;PMS5003;74020;50.722;-1.944;2023-11-22T13:05:47;3;3;
81640;PMS5003;74020;50.722;-1.944;2023-11-22T13:08:12;5;5;
81640;PMS5003;74020;50.722;-1.944;2023-11-22T13:10:38;4;4;
81640;PMS5003;74020;50.722;-1.944;2023-11-22T13:13:03;6;5;
81640;PMS5003;74020;50.722;-1.944;2023-11-22T13:15:28;3;3;
81640;PMS5003;74020;50.722;-1.944;2023-11-22T13:17:53;3;3;
81640;PMS5003;74020;50.722;-1.944;2023-11-22T13:20:19;3;2;
81640;PMS5003;74020;50.722;-1.944;2023-11-22T13:22:44;3;2;
81640;PMS5003;74020;50.722;-1.944;2023-11-22T13:25:09;4;4;
81640;PMS5003;74020;50.722;-1.944;2023-11-22T13:27:34;2;2;
81640;PMS5003;74020;50.722;-1.944;2023-11-22T13:30:00;2;2;
81640;PMS5003;74020;50.722;-1.944;2023-11-22T13:32:25;5;5;
81640;PMS5003;74020;50.722;-1.944;2023-11-22T13:34:50;2;2;
81640;PMS5003;74020;50.722;-1.944;2023-11-22T13:37:16;4;3;
81640;PMS5003;74020;50.722;-1.944;2023-11-22T13:39:41;3;2;
81640;PMS5003;74020;50.722;-1.944;2023-11-22T13:42:06;2;2;
81640;PMS5003;74020;50.722;-1.944;2023-11-22T13:44:32;2;2;
81640;PMS5003;74020;50.722;-1.944;2023-11-22T13:46:57;2;2;
81640;PMS5003;74020;50.722;-1.944;2023-11-22T13:49:24;2;2;
81640;PMS5003;74020;50.722;-1.944;2023-11-22T13:51:47;2;2;
81640;PMS5003;74020;50.722;-1.944;2023-11-22T13:54:13;2;2;
81640;PMS5003;74020;50.722;-1.944;2023-11-22T13:56:38;3;3;
81640;PMS5003;74020;50.722;-1.944;2023-11-22T13:59:03;3;2;
81640;PMS5003;74020;50.722;-1.944;2023-11-22T14:01:29;2;2;
81640;PMS5003;74020;50.722;-1.944;2023-11-22T14:03:54;2;2;
81640;PMS5003;74020;50.722;-1.944;2023-11-22T14:06:19;2;2;
81640;PMS5003;74020;50.722;-1.944;2023-11-22T14:08:45;2;2;
81640;PMS5003;74020;50.722;-1.944;2023-11-22T14:11:10;3;3;
81640;PMS5003;74020;50.722;-1.944;2023-11-22T14:13:35;2;2;
81640;PMS5003;74020;50.722;-1.944;2023-11-22T14:16:01;1;1;
81640;PMS5003;74020;50.722;-1.944;2023-11-22T14:18:26;2;1;
81640;PMS5003;74020;50.722;-1.944;2023-11-22T14:20:51;2;2;
81640;PMS5003;74020;50.722;-1.944;2023-11-22T14:23:16;5;4;
81640;PMS5003;74020;50.722;-1.944;2023-11-22T14:25:42;3;3;
81640;PMS5003;74020;50.722;-1.944;2023-11-22T14:28:07;3;3;
81640;PMS5003;74020;50.722;-1.944;2023-11-22T14:30:32;4;4;
81640;PMS5003;74020;50.722;-1.944;2023-11-22T14:32:58;2;2;
81640;PMS5003;74020;50.722;-1.944;2023-11-22T14:35:23;4;4;
81640;PMS5003;74020;50.722;-1.944;2023-11-22T14:37:48;2;2;
81640;PMS5003;74020;50.722;-1.944;2023-11-22T14:40:14;3;3;
81640;PMS5003;74020;50.722;-1.944;2023-11-22T14:42:40;3;3;
81640;PMS5003;74020;50.722;-1.944;2023-11-22T14:45:04;2;2;
81640;PMS5003;74020;50.722;-1.944;2023-11-22T14:47:29;2;2;
81640;PMS5003;74020;50.722;-1.944;2023-11-22T14:49:55;3;2;
81640;PMS5003;74020;50.722;-1.944;2023-11-22T14:52:20;4;3;
81640;PMS5003;74020;50.722;-1.944;2023-11-22T14:54:45;3;3;
81640;PMS5003;74020;50.722;-1.944;2023-11-22T14:57:11;3;3;
81640;PMS5003;74020;50.722;-1.944;2023-11-22T14:59:36;3;3;
81640;PMS5003;74020;50.722;-1.944;2023-11-22T15:02:01;3;3;
81640;PMS5003;74020;50.722;-1.944;2023-11-22T15:04:27;2;2;
81640;PMS5003;74020;50.722;-1.944;2023-11-22T15:06:52;3;3;
81640;PMS5003;74020;50.722;-1.944;2023-11-22T15:09:17;3;3;
81640;PMS5003;74020;50.722;-1.944;2023-11-22T15:11:43;4;4;
81640;PMS5003;74020;50.722;-1.944;2023-11-22T15:14:08;3;3;
81640;PMS5003;74020;50.722;-1.944;2023-11-22T15:16:33;3;2;
81640;PMS5003;74020;50.722;-1.944;2023-11-22T15:18:58;2;2;
81640;PMS5003;74020;50.722;-1.944;2023-11-22T15:21:24;4;3;
81640;PMS5003;74020;50.722;-1.944;2023-11-22T15:23:49;4;4;
81640;PMS5003;74020;50.722;-1.944;2023-11-22T15:26:15;3;3;
81640;PMS5003;74020;50.722;-1.944;2023-11-22T15:28:40;3;3;
81640;PMS5003;74020;50.722;-1.944;2023-11-22T15:31:05;4;3;
81640;PMS5003;74020;50.722;-1.944;2023-11-22T15:33:31;7;6;
81640;PMS5003;74020;50.722;-1.944;2023-11-22T15:35:57;10;10;
81640;PMS5003;74020;50.722;-1.944;2023-11-22T15:38:22;5;5;
81640;PMS5003;74020;50.722;-1.944;2023-11-22T15:40:47;5;5;
81640;PMS5003;74020;50.722;-1.944;2023-11-22T15:43:13;6;5;
81640;PMS5003;74020;50.722;-1.944;2023-11-22T15:45:38;5;5;
81640;PMS5003;74020;50.722;-1.944;2023-11-22T15:48:04;7;7;
81640;PMS5003;74020;50.722;-1.944;2023-11-22T15:50:29;9;9;
81640;PMS5003;74020;50.722;-1.944;2023-11-22T15:52:55;8;8;
81640;PMS5003;74020;50.722;-1.944;2023-11-22T15:55:20;7;7;
81640;PMS5003;74020;50.722;-1.944;2023-11-22T15:57:45;6;5;
81640;PMS5003;74020;50.722;-1.944;2023-11-22T16:00:12;7;5;
81640;PMS5003;74020;50.722;-1.944;2023-11-22T16:02:36;4;3;
81640;PMS5003;74020;50.722;-1.944;2023-11-22T16:05:01;4;3;